Observation data for Knox City on 02/11/2018      Previous  Date       Current Mesonet Observations  Soil Data  Daily Summary Page  Observations in Plain Language
KKN1 110600Z 01009KT M05/M12 A301 RMK A01 T10511124  RH  058%=      5-min Rain = 0
KKN1 110605Z 01009KT M05/M12 A301 RMK A01 T10521124  RH  058%=      5-min Rain = 0
KKN1 110610Z 01009KT M05/M12 A301 RMK A01 T10521124  RH  058%=      5-min Rain = 0
KKN1 110615Z 01007KT M05/M12 A301 RMK A01 T10521124  RH  058%=      5-min Rain = 0
KKN1 110620Z 01009KT M05/M12 A301 RMK A01 T10531124  RH  058%=      5-min Rain = 0
KKN1 110625Z 01008KT M05/M12 A301 RMK A01 T10531124  RH  058%=      5-min Rain = 0
KKN1 110630Z 01008KT M05/M12 A3009 RMK A01 T10531124  RH  058%=      5-min Rain = 0
KKN1 110635Z 01007KT M05/M13 A3009 RMK A01 T10541125  RH  058%=      5-min Rain = 0
KKN1 110640Z 01006KT M05/M13 A3009 RMK A01 T10541125  RH  058%=      5-min Rain = 0
KKN1 110645Z 01008KT M05/M12 A3009 RMK A01 T10541124  RH  059%=      5-min Rain = 0
KKN1 110650Z 01008KT M05/M12 A3009 RMK A01 T10541124  RH  058%=      5-min Rain = 0
KKN1 110655Z 01009KT M05/M12 A3009 RMK A01 T10531124  RH  058%=      5-min Rain = 0
KKN1 110700Z 01009G14KT M05/M12 A3009 RMK A01 T10531124  RH  058%=      5-min Rain = 0
KKN1 110705Z 36008KT M05/M12 A3009 RMK A01 T10531124  RH  058%=      5-min Rain = 0
KKN1 110710Z 35007KT M05/M12 A301 RMK A01 T10541123  RH  059%=      5-min Rain = 0
KKN1 110715Z 35007KT M05/M12 A301 RMK A01 T10541124  RH  059%=      5-min Rain = 0
KKN1 110720Z 35010KT M05/M12 A301 RMK A01 T10541124  RH  059%=      5-min Rain = 0
KKN1 110725Z 35010G15KT M05/M12 A301 RMK A01 T10531123  RH  059%=      5-min Rain = 0
KKN1 110730Z 35010KT M05/M12 A301 RMK A01 T10531123  RH  058%=      5-min Rain = 0
KKN1 110735Z 35013KT M05/M12 A3011 RMK A01 T10511124  RH  057%=      5-min Rain = 0
KKN1 110740Z 35011G16KT M05/M12 A3011 RMK A01 T10501124  RH  057%=      5-min Rain = 0
KKN1 110745Z 34011KT M05/M12 A3011 RMK A01 T10501124  RH  057%=      5-min Rain = 0
KKN1 110750Z 34012G17KT M05/M12 A3011 RMK A01 T10501124  RH  057%=      5-min Rain = 0
KKN1 110755Z 35012G17KT M05/M12 A3011 RMK A01 T10491124  RH  057%=      5-min Rain = 0
KKN1 110800Z 35014KT M05/M13 A3012 RMK A01 T10501125  RH  056%=      5-min Rain = 0
KKN1 110805Z 36013KT M05/M13 A3012 RMK A01 T10501125  RH  057%=      5-min Rain = 0
KKN1 110810Z 36013KT M05/M12 A3012 RMK A01 T10501124  RH  057%=      5-min Rain = 0
KKN1 110815Z 36010KT M05/M12 A3012 RMK A01 T10491124  RH  057%=      5-min Rain = 0
KKN1 110820Z 35012KT M05/M12 A3012 RMK A01 T10491124  RH  057%=      5-min Rain = 0
KKN1 110825Z 35012KT M05/M12 A3012 RMK A01 T10491124  RH  057%=      5-min Rain = 0
KKN1 110830Z 00011KT M05/M12 A3012 RMK A01 T10501123  RH  057%=      5-min Rain = 0
KKN1 110835Z 36015KT M05/M12 A3011 RMK A01 T10511124  RH  057%=      5-min Rain = 0
KKN1 110840Z 00015G20KT M05/M12 A3012 RMK A01 T10521123  RH  058%=      5-min Rain = 0
KKN1 110845Z 36012G17KT M05/M12 A3012 RMK A01 T10511123  RH  058%=      5-min Rain = 0
KKN1 110850Z 36014KT M05/M12 A3012 RMK A01 T10511123  RH  058%=      5-min Rain = 0
KKN1 110855Z 36013KT M05/M12 A3012 RMK A01 T10521123  RH  058%=      5-min Rain = 0
KKN1 110900Z 36014G19KT M05/M12 A3012 RMK A01 T10521122  RH  058%=      5-min Rain = 0
KKN1 110905Z 35013KT M05/M12 A3013 RMK A01 T10511122  RH  058%=      5-min Rain = 0
KKN1 110910Z 35011KT M05/M12 A3013 RMK A01 T10521123  RH  058%=      5-min Rain = 0
KKN1 110915Z 36014KT M05/M12 A3013 RMK A01 T10521122  RH  058%=      5-min Rain = 0
KKN1 110920Z 36015KT M05/M12 A3013 RMK A01 T10511122  RH  058%=      5-min Rain = 0
KKN1 110925Z 35012KT M05/M12 A3013 RMK A01 T10511122  RH  058%=      5-min Rain = 0
KKN1 110930Z 35011KT M05/M12 A3013 RMK A01 T10511122  RH  058%=      5-min Rain = 0
KKN1 110935Z 35013G18KT M05/M12 A3014 RMK A01 T10501122  RH  058%=      5-min Rain = 0
KKN1 110940Z 35013KT M05/M12 A3014 RMK A01 T10501122  RH  058%=      5-min Rain = 0
KKN1 110945Z 36013G18KT M05/M12 A3014 RMK A01 T10491122  RH  058%=      5-min Rain = 0
KKN1 110950Z 35014KT M05/M12 A3013 RMK A01 T10491121  RH  058%=      5-min Rain = 0
KKN1 110955Z 35015KT M05/M12 A3014 RMK A01 T10481121  RH  058%=      5-min Rain = 0
KKN1 111000Z 35015G20KT M05/M12 A3014 RMK A01 T10481120  RH  058%=      5-min Rain = 0
KKN1 111005Z 36012G18KT M05/M12 A3015 RMK A01 T10481120  RH  058%=      5-min Rain = 0
KKN1 111010Z 36013KT M05/M12 A3015 RMK A01 T10481120  RH  058%=      5-min Rain = 0
KKN1 111015Z 36010G16KT M05/M12 A3015 RMK A01 T10471119  RH  058%=      5-min Rain = 0
KKN1 111020Z 01012KT M05/M12 A3015 RMK A01 T10471119  RH  058%=      5-min Rain = 0
KKN1 111025Z 36014G19KT M05/M12 A3015 RMK A01 T10471119  RH  058%=      5-min Rain = 0
KKN1 111030Z 35015G21KT M05/M12 A3015 RMK A01 T10471119  RH  058%=      5-min Rain = 0
KKN1 111035Z 00013G18KT M05/M12 A3015 RMK A01 T10471119  RH  058%=      5-min Rain = 0
KKN1 111040Z 00015G20KT M05/M12 A3015 RMK A01 T10471118  RH  058%=      5-min Rain = 0
KKN1 111045Z 36014KT M05/M12 A3015 RMK A01 T10461118  RH  058%=      5-min Rain = 0
KKN1 111050Z 35014G19KT M05/M12 A3015 RMK A01 T10461118  RH  058%=      5-min Rain = 0
KKN1 111055Z 36013KT M05/M12 A3015 RMK A01 T10461118  RH  058%=      5-min Rain = 0
KKN1 111100Z 00012KT M05/M12 A3015 RMK A01 T10461118  RH  058%=      5-min Rain = 0
KKN1 111105Z 36012G17KT M05/M12 A3016 RMK A01 T10461118  RH  058%=      5-min Rain = 0
KKN1 111110Z 35013G18KT M05/M12 A3016 RMK A01 T10461118  RH  058%=      5-min Rain = 0
KKN1 111115Z 35013G18KT M05/M12 A3016 RMK A01 T10461118  RH  058%=      5-min Rain = 0
KKN1 111120Z 36014G19KT M05/M12 A3016 RMK A01 T10461118  RH  058%=      5-min Rain = 0
KKN1 111125Z 36013G18KT M05/M12 A3017 RMK A01 T10461118  RH  058%=      5-min Rain = 0
KKN1 111130Z 00013G18KT M05/M12 A3016 RMK A01 T10461118  RH  058%=      5-min Rain = 0
KKN1 111135Z 36014KT M05/M12 A3017 RMK A01 T10461118  RH  058%=      5-min Rain = 0
KKN1 111140Z 36014G19KT M05/M12 A3017 RMK A01 T10461117  RH  058%=      5-min Rain = 0
KKN1 111145Z 36013G18KT M05/M12 A3017 RMK A01 T10461117  RH  058%=      5-min Rain = 0
KKN1 111150Z 36012KT M05/M12 A3018 RMK A01 T10461117  RH  059%=      5-min Rain = 0
KKN1 111155Z 36012KT M05/M12 A3018 RMK A01 T10461117  RH  059%=      5-min Rain = 0
KKN1 111200Z 35011KT M05/M12 A3018 RMK A01 T10461117  RH  059%=      5-min Rain = 0
KKN1 111205Z 36011KT M05/M12 A3018 RMK A01 T10461116  RH  059%=      5-min Rain = 0
KKN1 111210Z 35012KT M05/M12 A3018 RMK A01 T10461116  RH  059%=      5-min Rain = 0
KKN1 111215Z 35009KT M05/M12 A3019 RMK A01 T10451116  RH  059%=      5-min Rain = 0
KKN1 111220Z 35009KT M05/M12 A3019 RMK A01 T10451116  RH  058%=      5-min Rain = 0
KKN1 111225Z 35009KT M05/M12 A302 RMK A01 T10451116  RH  059%=      5-min Rain = 0
KKN1 111230Z 35009KT M04/M12 A302 RMK A01 T10441116  RH  058%=      5-min Rain = 0
KKN1 111235Z 35009G14KT M04/M12 A3021 RMK A01 T10441115  RH  058%=      5-min Rain = 0
KKN1 111240Z 35010KT M05/M12 A302 RMK A01 T10451116  RH  058%=      5-min Rain = 0
KKN1 111245Z 36009KT M04/M12 A3021 RMK A01 T10441116  RH  058%=      5-min Rain = 0
KKN1 111250Z 35011KT M05/M12 A3021 RMK A01 T10451116  RH  058%=      5-min Rain = 0
KKN1 111255Z 35010G15KT M05/M12 A3022 RMK A01 T10451117  RH  058%=      5-min Rain = 0
KKN1 111300Z 35011G17KT M05/M12 A3022 RMK A01 T10451117  RH  058%=      5-min Rain = 0
KKN1 111305Z 35012G17KT M05/M12 A3022 RMK A01 T10451118  RH  058%=      5-min Rain = 0
KKN1 111310Z 35012G17KT M05/M12 A3022 RMK A01 T10461118  RH  058%=      5-min Rain = 0
KKN1 111315Z 35013KT M05/M12 A3022 RMK A01 T10461119  RH  058%=      5-min Rain = 0
KKN1 111320Z 35013G18KT M05/M12 A3022 RMK A01 T10471119  RH  058%=      5-min Rain = 0
KKN1 111325Z 35012G17KT M05/M12 A3022 RMK A01 T10481120  RH  058%=      5-min Rain = 0
KKN1 111330Z 35010KT M05/M12 A3023 RMK A01 T10491120  RH  058%=      5-min Rain = 0
KKN1 111335Z 35012KT M05/M12 A3023 RMK A01 T10491121  RH  058%=      5-min Rain = 0
KKN1 111340Z 35013G18KT M05/M12 A3023 RMK A01 T10501121  RH  058%=      5-min Rain = 0
KKN1 111345Z 36012G18KT M05/M12 A3023 RMK A01 T10501122  RH  058%=      5-min Rain = 0
KKN1 111350Z 00013KT M05/M12 A3023 RMK A01 T10501122  RH  058%=      5-min Rain = 0
KKN1 111355Z 35011KT M05/M12 A3024 RMK A01 T10501122  RH  058%=      5-min Rain = 0
KKN1 111400Z 35010KT M05/M12 A3024 RMK A01 T10501122  RH  058%=      5-min Rain = 0
KKN1 111405Z 35011KT M05/M12 A3024 RMK A01 T10501122  RH  058%=      5-min Rain = 0
KKN1 111410Z 35011KT M05/M12 A3024 RMK A01 T10491122  RH  058%=      5-min Rain = 0
KKN1 111415Z 35012G17KT M05/M12 A3025 RMK A01 T10491122  RH  057%=      5-min Rain = 0
KKN1 111420Z 34011KT M05/M12 A3025 RMK A01 T10491122  RH  057%=      5-min Rain = 0
KKN1 111425Z 34013KT M05/M12 A3025 RMK A01 T10491122  RH  057%=      5-min Rain = 0
KKN1 111430Z 34011KT M05/M12 A3026 RMK A01 T10481122  RH  057%=      5-min Rain = 0
KKN1 111435Z 34012KT M05/M12 A3026 RMK A01 T10481123  RH  057%=      5-min Rain = 0
KKN1 111440Z 34014G19KT M05/M12 A3026 RMK A01 T10481123  RH  056%=      5-min Rain = 0
KKN1 111445Z 34012G17KT M05/M12 A3026 RMK A01 T10471123  RH  056%=      5-min Rain = 0
KKN1 111450Z 34012KT M05/M12 A3026 RMK A01 T10481123  RH  056%=      5-min Rain = 0
KKN1 111455Z 33012G18KT M05/M12 A3026 RMK A01 T10471123  RH  056%=      5-min Rain = 0
KKN1 111500Z 34013KT M05/M12 A3027 RMK A01 T10481124  RH  056%=      5-min Rain = 0
KKN1 111505Z 34013G18KT M05/M13 A3027 RMK A01 T10481125  RH  056%=      5-min Rain = 0
KKN1 111510Z 34014KT M05/M13 A3027 RMK A01 T10481125  RH  056%=      5-min Rain = 0
KKN1 111515Z 34013KT M05/M13 A3027 RMK A01 T10471125  RH  055%=      5-min Rain = 0
KKN1 111520Z 33012KT M05/M12 A3027 RMK A01 T10451124  RH  055%=      5-min Rain = 0
KKN1 111525Z 34014G19KT M04/M13 A3027 RMK A01 T10441126  RH  054%=      5-min Rain = 0
KKN1 111530Z 34015G20KT M04/M13 A3028 RMK A01 T10441127  RH  053%=      5-min Rain = 0
KKN1 111535Z 34014G19KT M04/M13 A3028 RMK A01 T10431127  RH  053%=      5-min Rain = 0
KKN1 111540Z 34012G17KT M04/M13 A3028 RMK A01 T10381126  RH  051%=      5-min Rain = 0
KKN1 111545Z 35014G19KT M04/M13 A3028 RMK A01 T10391129  RH  050%=      5-min Rain = 0
KKN1 111550Z 35014G20KT M04/M13 A3027 RMK A01 T10391129  RH  050%=      5-min Rain = 0
KKN1 111555Z 35014G19KT M03/M13 A3027 RMK A01 T10331128  RH  049%=      5-min Rain = 0
KKN1 111600Z 35016KT M03/M13 A3028 RMK A01 T10291130  RH  046%=      5-min Rain = 0
KKN1 111605Z 35016KT M03/M13 A3028 RMK A01 T10291129  RH  047%=      5-min Rain = 0
KKN1 111610Z 35014KT M03/M13 A3028 RMK A01 T10261128  RH  046%=      5-min Rain = 0
KKN1 111615Z 34013G18KT M02/M13 A3028 RMK A01 T10211128  RH  044%=      5-min Rain = 0
KKN1 111620Z 35011G16KT M02/M13 A3028 RMK A01 T10171128  RH  043%=      5-min Rain = 0
KKN1 111625Z 35013G18KT M01/M13 A3029 RMK A01 T10141131  RH  041%=      5-min Rain = 0
KKN1 111630Z 36013G19KT M01/M13 A3029 RMK A01 T10111132  RH  040%=      5-min Rain = 0
KKN1 111635Z 35012G19KT M01/M13 A3028 RMK A01 T10111132  RH  040%=      5-min Rain = 0
KKN1 111640Z 35014G19KT M01/M13 A3028 RMK A01 T10091132  RH  039%=      5-min Rain = 0
KKN1 111645Z 34014G19KT M01/M13 A3028 RMK A01 T10121133  RH  040%=      5-min Rain = 0
KKN1 111650Z 36012KT M01/M13 A3029 RMK A01 T10101131  RH  040%=      5-min Rain = 0
KKN1 111655Z 00010KT M01/M13 A3028 RMK A01 T10081131  RH  039%=      5-min Rain = 0
KKN1 111700Z 35011G16KT M00/M13 A3028 RMK A01 T10041132  RH  038%=      5-min Rain = 0
KKN1 111705Z 35012G17KT M01/M13 A3029 RMK A01 T10081134  RH  038%=      5-min Rain = 0
KKN1 111710Z 01011G17KT M01/M13 A3029 RMK A01 T10111133  RH  040%=      5-min Rain = 0
KKN1 111715Z 34010G15KT M00/M13 A3029 RMK A01 T10041131  RH  038%=      5-min Rain = 0
KKN1 111720Z 36012G17KT M00/M13 A3028 RMK A01 T10041133  RH  038%=      5-min Rain = 0
KKN1 111725Z 36010KT M00/M13 A3028 RMK A01 T10041131  RH  038%=      5-min Rain = 0
KKN1 111730Z 00009KT M00/M13 A3028 RMK A01 T10041133  RH  038%=      5-min Rain = 0
KKN1 111735Z 01009KT M00/M13 A3027 RMK A01 T10021130  RH  038%=      5-min Rain = 0
KKN1 111740Z 01009KT 00/M13 A3028 RMK A01 T00021131  RH  037%=      5-min Rain = 0
KKN1 111745Z 33009KT 00/M13 A3028 RMK A01 T00031131  RH  036%=      5-min Rain = 0
KKN1 111750Z 00010KT 00/M13 A3028 RMK A01 T00021132  RH  037%=      5-min Rain = 0
KKN1 111755Z 35010G16KT 00/M13 A3028 RMK A01 T00041132  RH  036%=      5-min Rain = 0
KKN1 111800Z 00009KT 00/M13 A3028 RMK A01 T00021132  RH  036%=      5-min Rain = 0
KKN1 111805Z 00009G14KT 00/M13 A3028 RMK A01 T00011131  RH  037%=      5-min Rain = 0
KKN1 111810Z 01009G14KT 01/M13 A3028 RMK A01 T00051131  RH  036%=      5-min Rain = 0
KKN1 111815Z 02008G13KT 00/M13 A3028 RMK A01 T00031132  RH  036%=      5-min Rain = 0
KKN1 111820Z 36007KT 01/M13 A3028 RMK A01 T00081131  RH  035%=      5-min Rain = 0
KKN1 111825Z 35008KT 01/M13 A3028 RMK A01 T00111132  RH  034%=      5-min Rain = 0
KKN1 111830Z 35009KT 01/M13 A3028 RMK A01 T00091132  RH  035%=      5-min Rain = 0
KKN1 111835Z 32007KT 01/M13 A3027 RMK A01 T00131131  RH  034%=      5-min Rain = 0
KKN1 111840Z 34009G15KT 02/M13 A3027 RMK A01 T00191129  RH  033%=      5-min Rain = 0
KKN1 111845Z 00009KT 02/M13 A3027 RMK A01 T00191129  RH  033%=      5-min Rain = 0
KKN1 111850Z 35010KT 02/M13 A3027 RMK A01 T00201129  RH  033%=      5-min Rain = 0
KKN1 111855Z 36009KT 02/M13 A3026 RMK A01 T00211128  RH  033%=      5-min Rain = 0
KKN1 111900Z 34008KT 02/M13 A3026 RMK A01 T00211129  RH  032%=      5-min Rain = 0
KKN1 111905Z 00005G10KT 02/M13 A3026 RMK A01 T00221127  RH  033%=      5-min Rain = 0
KKN1 111910Z 33009G16KT 03/M13 A3025 RMK A01 T00301125  RH  032%=      5-min Rain = 0
KKN1 111915Z 34009KT 03/M13 A3025 RMK A01 T00321125  RH  031%=      5-min Rain = 0
KKN1 111920Z 33008G13KT 03/M13 A3024 RMK A01 T00281126  RH  032%=      5-min Rain = 0
KKN1 111925Z 34009G14KT 03/M12 A3024 RMK A01 T00311124  RH  031%=      5-min Rain = 0
KKN1 111930Z 34009KT 03/M12 A3024 RMK A01 T00331123  RH  031%=      5-min Rain = 0
KKN1 111935Z 32011KT 04/M12 A3023 RMK A01 T00351124  RH  031%=      5-min Rain = 0
KKN1 111940Z 33009G15KT 04/M12 A3023 RMK A01 T00391122  RH  030%=      5-min Rain = 0
KKN1 111945Z 33010KT 04/M12 A3023 RMK A01 T00411123  RH  030%=      5-min Rain = 0
KKN1 111950Z 34008G16KT 04/M12 A3022 RMK A01 T00381123  RH  030%=      5-min Rain = 0
KKN1 111955Z 33009G15KT 04/M12 A3022 RMK A01 T00381124  RH  030%=      5-min Rain = 0
KKN1 112000Z 34009G15KT 04/M12 A3022 RMK A01 T00371123  RH  030%=      5-min Rain = 0
KKN1 112005Z 32011KT 04/M12 A3022 RMK A01 T00441121  RH  029%=      5-min Rain = 0
KKN1 112010Z 33007KT 05/M12 A3022 RMK A01 T00471121  RH  029%=      5-min Rain = 0
KKN1 112015Z 35011KT 05/M12 A3022 RMK A01 T00461121  RH  029%=      5-min Rain = 0
KKN1 112020Z 33007G14KT 05/M12 A3021 RMK A01 T00461120  RH  029%=      5-min Rain = 0
KKN1 112025Z 33010KT 05/M12 A3021 RMK A01 T00511121  RH  028%=      5-min Rain = 0
KKN1 112030Z 34009G14KT 05/M12 A3021 RMK A01 T00481121  RH  029%=      5-min Rain = 0
KKN1 112035Z 34010G15KT 05/M12 A3021 RMK A01 T00451122  RH  029%=      5-min Rain = 0
KKN1 112040Z 01010KT 05/M12 A3021 RMK A01 T00481121  RH  028%=      5-min Rain = 0
KKN1 112045Z 01009KT 04/M12 A3021 RMK A01 T00441122  RH  029%=      5-min Rain = 0
KKN1 112050Z 34009KT 04/M12 A3021 RMK A01 T00441123  RH  029%=      5-min Rain = 0
KKN1 112055Z 34008KT 05/M12 A3021 RMK A01 T00451123  RH  029%=      5-min Rain = 0
KKN1 112100Z 35010KT 05/M12 A3021 RMK A01 T00471124  RH  028%=      5-min Rain = 0
KKN1 112105Z 34008KT 04/M13 A3021 RMK A01 T00401126  RH  029%=      5-min Rain = 0
KKN1 112110Z 36008KT 04/M13 A3021 RMK A01 T00401126  RH  029%=      5-min Rain = 0
KKN1 112115Z 02009KT 04/M12 A3021 RMK A01 T00411124  RH  029%=      5-min Rain = 0
KKN1 112120Z 01005KT 04/M12 A3021 RMK A01 T00441124  RH  029%=      5-min Rain = 0
KKN1 112125Z 01007KT 05/M12 A3021 RMK A01 T00451124  RH  028%=      5-min Rain = 0
KKN1 112130Z 36006G11KT 04/M13 A302 RMK A01 T00441126  RH  028%=      5-min Rain = 0
KKN1 112135Z 36009KT 04/M13 A302 RMK A01 T00431126  RH  028%=      5-min Rain = 0
KKN1 112140Z 35007KT 04/M13 A3021 RMK A01 T00441127  RH  028%=      5-min Rain = 0
KKN1 112145Z 35005KT 04/M13 A3021 RMK A01 T00441126  RH  028%=      5-min Rain = 0
KKN1 112150Z 01008KT 05/M13 A3021 RMK A01 T00491125  RH  027%=      5-min Rain = 0
KKN1 112155Z 01006KT 05/M13 A3021 RMK A01 T00461127  RH  028%=      5-min Rain = 0
KKN1 112200Z 01004G9KT 05/M13 A3021 RMK A01 T00451128  RH  028%=      5-min Rain = 0
KKN1 112205Z 02007KT 05/M13 A3021 RMK A01 T00461129  RH  027%=      5-min Rain = 0
KKN1 112210Z 03004KT 05/M13 A3021 RMK A01 T00471129  RH  027%=      5-min Rain = 0
KKN1 112215Z 04006KT 05/M13 A3021 RMK A01 T00461129  RH  027%=      5-min Rain = 0
KKN1 112220Z 01006KT 05/M13 A3021 RMK A01 T00461129  RH  027%=      5-min Rain = 0
KKN1 112225Z 02005KT 05/M13 A302 RMK A01 T00501129  RH  027%=      5-min Rain = 0
KKN1 112230Z 03007KT 05/M13 A302 RMK A01 T00521130  RH  026%=      5-min Rain = 0
KKN1 112235Z 03007KT 05/M13 A302 RMK A01 T00521131  RH  026%=      5-min Rain = 0
KKN1 112240Z 04005KT 05/M13 A302 RMK A01 T00511130  RH  026%=      5-min Rain = 0
KKN1 112245Z 04005KT 05/M13 A302 RMK A01 T00511129  RH  026%=      5-min Rain = 0
KKN1 112250Z 07004KT 05/M13 A302 RMK A01 T00491130  RH  026%=      5-min Rain = 0
KKN1 112255Z 05005KT 05/M13 A3021 RMK A01 T00501130  RH  026%=      5-min Rain = 0
KKN1 112300Z 05004KT 05/M13 A3021 RMK A01 T00491131  RH  026%=      5-min Rain = 0
KKN1 112305Z 02003KT 05/M13 A3021 RMK A01 T00511131  RH  026%=      5-min Rain = 0
KKN1 112310Z 04004KT 05/M13 A3021 RMK A01 T00501131  RH  026%=      5-min Rain = 0
KKN1 112315Z 03001G6KT 05/M13 A3021 RMK A01 T00501131  RH  026%=      5-min Rain = 0
KKN1 112320Z 03003KT 05/M13 A3021 RMK A01 T00531131  RH  025%=      5-min Rain = 0
KKN1 112325Z 02005KT 05/M13 A3021 RMK A01 T00521133  RH  025%=      5-min Rain = 0
KKN1 112330Z 02005KT 05/M13 A3022 RMK A01 T00501133  RH  026%=      5-min Rain = 0
KKN1 112335Z 04004KT 05/M13 A3022 RMK A01 T00481132  RH  026%=      5-min Rain = 0
KKN1 112340Z 03003KT 05/M13 A3022 RMK A01 T00491132  RH  026%=      5-min Rain = 0
KKN1 112345Z 02003KT 05/M13 A3022 RMK A01 T00491133  RH  026%=      5-min Rain = 0
KKN1 112350Z 03002KT 05/M13 A3022 RMK A01 T00481132  RH  026%=      5-min Rain = 0
KKN1 112355Z 03004KT 05/M13 A3023 RMK A01 T00461133  RH  026%=      5-min Rain = 0
KKN1 120000Z 05003KT 04/M13 A3023 RMK A01 T00421133  RH  027%=      5-min Rain = 0
KKN1 120005Z 05002KT 04/M13 A3023 RMK A01 T00421133  RH  027%=      5-min Rain = 0
KKN1 120010Z 07002KT 04/M13 A3023 RMK A01 T00391134  RH  027%=      5-min Rain = 0
KKN1 120015Z 07002KT 04/M13 A3023 RMK A01 T00371134  RH  028%=      5-min Rain = 0
KKN1 120020Z 07002KT 03/M14 A3024 RMK A01 T00341135  RH  028%=      5-min Rain = 0
KKN1 120025Z 09003KT 03/M13 A3024 RMK A01 T00311134  RH  029%=      5-min Rain = 0
KKN1 120030Z 09003KT 03/M14 A3024 RMK A01 T00261135  RH  030%=      5-min Rain = 0
KKN1 120035Z 08003KT 02/M14 A3024 RMK A01 T00211136  RH  031%=      5-min Rain = 0
KKN1 120040Z 09003KT 02/M14 A3024 RMK A01 T00181135  RH  032%=      5-min Rain = 0
KKN1 120045Z 08003KT 02/M14 A3025 RMK A01 T00181135  RH  032%=      5-min Rain = 0
KKN1 120050Z 10004KT 02/M14 A3025 RMK A01 T00171136  RH  032%=      5-min Rain = 0
KKN1 120055Z 10004KT 01/M14 A3025 RMK A01 T00121141  RH  031%=      5-min Rain = 0
KKN1 120100Z 10003KT 00/M15 A3025 RMK A01 T00021146  RH  033%=      5-min Rain = 0
KKN1 120105Z 10003KT M01/M15 A3025 RMK A01 T10051147  RH  034%=      5-min Rain = 0
KKN1 120110Z 09003KT M00/M14 A3025 RMK A01 T10041144  RH  035%=      5-min Rain = 0
KKN1 120115Z 08003KT M00/M14 A3025 RMK A01 T10011142  RH  034%=      5-min Rain = 0
KKN1 120120Z 09003KT M00/M15 A3025 RMK A01 T10031147  RH  033%=      5-min Rain = 0
KKN1 120125Z 10004KT M01/M15 A3025 RMK A01 T10111150  RH  035%=      5-min Rain = 0
KKN1 120130Z 09004KT M01/M14 A3025 RMK A01 T10111144  RH  036%=      5-min Rain = 0
KKN1 120135Z 09004KT M01/M15 A3025 RMK A01 T10111146  RH  036%=      5-min Rain = 0
KKN1 120140Z 11005KT M02/M16 A3026 RMK A01 T10201156  RH  035%=      5-min Rain = 0
KKN1 120145Z 11005KT M03/M16 A3026 RMK A01 T10301156  RH  038%=      5-min Rain = 0
KKN1 120150Z 10005KT M03/M15 A3026 RMK A01 T10291152  RH  039%=      5-min Rain = 0
KKN1 120155Z 11005KT M03/M15 A3026 RMK A01 T10311154  RH  039%=      5-min Rain = 0
KKN1 120200Z 11005KT M03/M15 A3027 RMK A01 T10301147  RH  041%=      5-min Rain = 0
KKN1 120205Z 11005KT M02/M15 A3027 RMK A01 T10241146  RH  039%=      5-min Rain = 0
KKN1 120210Z 11006KT M02/M15 A3026 RMK A01 T10241148  RH  039%=      5-min Rain = 0
KKN1 120215Z 10006KT M02/M14 A3026 RMK A01 T10201140  RH  040%=      5-min Rain = 0
KKN1 120220Z 10005KT M01/M14 A3027 RMK A01 T10061135  RH  038%=      5-min Rain = 0
KKN1 120225Z 10005KT M01/M14 A3027 RMK A01 T10051138  RH  036%=      5-min Rain = 0
KKN1 120230Z 10005KT M01/M14 A3027 RMK A01 T10051136  RH  037%=      5-min Rain = 0
KKN1 120235Z 09005KT M00/M14 A3027 RMK A01 T10021136  RH  036%=      5-min Rain = 0
KKN1 120240Z 10005KT M01/M14 A3027 RMK A01 T10071143  RH  036%=      5-min Rain = 0
KKN1 120245Z 11004KT M02/M15 A3027 RMK A01 T10171146  RH  037%=      5-min Rain = 0
KKN1 120250Z 12005KT M02/M14 A3027 RMK A01 T10211143  RH  039%=      5-min Rain = 0
KKN1 120255Z 11004KT M02/M14 A3027 RMK A01 T10231143  RH  040%=      5-min Rain = 0
KKN1 120300Z 11005KT M03/M15 A3027 RMK A01 T10281146  RH  040%=      5-min Rain = 0
KKN1 120305Z 11005KT M03/M14 A3027 RMK A01 T10311143  RH  042%=      5-min Rain = 0
KKN1 120310Z 11005KT M03/M14 A3028 RMK A01 T10311143  RH  042%=      5-min Rain = 0
KKN1 120315Z 10005KT M03/M14 A3028 RMK A01 T10301141  RH  043%=      5-min Rain = 0
KKN1 120320Z 10005KT M02/M14 A3028 RMK A01 T10241138  RH  042%=      5-min Rain = 0
KKN1 120325Z 10005KT M02/M14 A3028 RMK A01 T10211139  RH  041%=      5-min Rain = 0
KKN1 120330Z 09005KT M02/M14 A3028 RMK A01 T10191138  RH  040%=      5-min Rain = 0
KKN1 120335Z 11004KT M02/M14 A3028 RMK A01 T10191142  RH  039%=      5-min Rain = 0
KKN1 120340Z 11004KT M03/M14 A3029 RMK A01 T10271141  RH  042%=      5-min Rain = 0
KKN1 120345Z 09004KT M03/M14 A3028 RMK A01 T10271139  RH  042%=      5-min Rain = 0
KKN1 120350Z 10004KT M03/M15 A3028 RMK A01 T10311145  RH  042%=      5-min Rain = 0
KKN1 120355Z 11004KT M03/M14 A3029 RMK A01 T10321144  RH  042%=      5-min Rain = 0
KKN1 120400Z 12004KT M04/M15 A3029 RMK A01 T10361146  RH  043%=      5-min Rain = 0
KKN1 120405Z 13003KT M04/M15 A3029 RMK A01 T10421149  RH  044%=      5-min Rain = 0
KKN1 120410Z 11003KT M04/M15 A3029 RMK A01 T10441146  RH  045%=      5-min Rain = 0
KKN1 120415Z 15005KT M04/M15 A303 RMK A01 T10441146  RH  045%=      5-min Rain = 0
KKN1 120420Z 14005KT M05/M15 A303 RMK A01 T10511150  RH  046%=      5-min Rain = 0
KKN1 120425Z 14005KT M05/M15 A303 RMK A01 T10521149  RH  047%=      5-min Rain = 0
KKN1 120430Z 15006KT M05/M15 A303 RMK A01 T10511146  RH  048%=      5-min Rain = 0
KKN1 120435Z 15006KT M05/M15 A303 RMK A01 T10501147  RH  047%=      5-min Rain = 0
KKN1 120440Z 15004KT M05/M15 A3031 RMK A01 T10521150  RH  047%=      5-min Rain = 0
KKN1 120445Z 15004KT M05/M15 A3031 RMK A01 T10541149  RH  048%=      5-min Rain = 0
KKN1 120450Z 15004KT M06/M15 A3031 RMK A01 T10561151  RH  048%=      5-min Rain = 0
KKN1 120455Z 15002KT M06/M15 A3031 RMK A01 T10581152  RH  048%=      5-min Rain = 0
KKN1 120500Z 16002KT M06/M15 A3031 RMK A01 T10571150  RH  049%=      5-min Rain = 0
KKN1 120505Z 16001KT M06/M15 A3031 RMK A01 T10581151  RH  049%=      5-min Rain = 0
KKN1 120510Z 16001KT M06/M15 A3031 RMK A01 T10571151  RH  049%=      5-min Rain = 0
KKN1 120515Z 16000KT M05/M15 A3031 RMK A01 T10541147  RH  049%=      5-min Rain = 0
KKN1 120520Z 20000KT M05/M15 A3031 RMK A01 T10531149  RH  047%=      5-min Rain = 0
KKN1 120525Z 20001KT M06/M15 A3031 RMK A01 T10551150  RH  048%=      5-min Rain = 0
KKN1 120530Z 20001KT M06/M15 A3031 RMK A01 T10551150  RH  048%=      5-min Rain = 0
KKN1 120535Z 20000KT M06/M15 A3031 RMK A01 T10551149  RH  048%=      5-min Rain = 0
KKN1 120540Z 00000KT M06/M16 A3031 RMK A01 T10591159  RH  046%=      5-min Rain = 0
KKN1 120545Z 20000KT M07/M16 A3031 RMK A01 T10661159  RH  049%=      5-min Rain = 0
KKN1 120550Z 20000KT M06/M15 A3031 RMK A01 T10611147  RH  051%=      5-min Rain = 0
KKN1 120555Z 20001KT M06/M15 A3031 RMK A01 T10551147  RH  049%=      5-min Rain = 0

Page generated in 0.0147 seconds.